Terminal Aerodrome Forecast
Issued by NWS

Home | Current Version | Previous Version | Graphics & Text | Print | Product List | Glossary On
Versions: 1 2 3 4 5 6 7 8 9 10 11 12 13 14 15 16
000
FTUS43 KUNR 230520
TAFGCC
TAF
KGCC 230520Z 2306/2406 16012KT P6SM SCT150
     FM231500 24007KT P6SM BKN250
     FM232100 34011KT P6SM SCT090 BKN150
     FM240100 35007KT P6SM OVC050=

USA.gov is the U.S. government's official web portal to all federal, state and local government web resources and services.